createdAt,value
2018-09-27T00:01:13.782Z,102497.26
2018-09-27T00:03:42.334Z,102491.13
2018-09-27T00:06:11.474Z,102488.06
2018-09-27T00:08:40.595Z,102494.63
2018-09-27T00:11:11.640Z,102505.09
2018-09-27T00:13:40.636Z,102507.73
2018-09-27T00:16:09.206Z,102495.02
2018-09-27T00:18:38.400Z,102491.93
2018-09-27T00:21:07.189Z,102491.91
2018-09-27T00:23:36.605Z,102490.16
2018-09-27T00:26:05.393Z,102487.97
2018-09-27T00:28:34.220Z,102497.59
2018-09-27T00:31:03.281Z,102494.09
2018-09-27T00:33:34.948Z,102494.53
2018-09-27T00:36:03.718Z,102494.06
2018-09-27T00:38:32.501Z,102494.94
2018-09-27T00:41:01.328Z,102492.75
2018-09-27T00:43:29.905Z,102484.42
2018-09-27T00:46:02.612Z,102488.80
2018-09-27T00:48:31.344Z,102486.59
2018-09-27T00:51:00.024Z,102483.97
2018-09-27T00:53:28.733Z,102481.33
2018-09-27T00:55:59.962Z,102483.53
2018-09-27T00:58:28.737Z,102489.18
2018-09-27T01:00:58.175Z,102488.29
2018-09-27T01:03:26.630Z,102487.86
2018-09-27T01:05:55.171Z,102484.34
2018-09-27T01:08:24.966Z,102482.59
2018-09-27T01:10:53.516Z,102482.98
2018-09-27T01:13:22.727Z,102484.28
2018-09-27T01:15:51.583Z,102481.67
2018-09-27T01:18:22.654Z,102479.03
2018-09-27T01:20:51.513Z,102476.84
2018-09-27T01:23:20.007Z,102474.19
2018-09-27T01:25:48.706Z,102479.44
2018-09-27T01:28:17.389Z,102477.25
2018-09-27T01:30:48.858Z,102478.55
2018-09-27T01:33:17.343Z,102469.80
2018-09-27T01:35:47.227Z,102473.73
2018-09-27T01:38:15.805Z,102473.69
2018-09-27T01:40:47.694Z,102471.08
2018-09-27T01:43:16.616Z,102470.61
2018-09-27T01:45:45.340Z,102466.66
2018-09-27T01:48:13.835Z,102466.66
2018-09-27T01:50:42.423Z,102464.02
2018-09-27T01:53:14.429Z,102463.14
2018-09-27T01:55:43.100Z,102460.05
2018-09-27T01:58:11.870Z,102464.86
2018-09-27T02:00:40.535Z,102456.09
2018-09-27T02:03:12.037Z,102456.09
2018-09-27T02:05:40.581Z,102449.52
2018-09-27T02:08:09.173Z,102449.94
2018-09-27T02:10:37.768Z,102451.23
2018-09-27T02:13:07.121Z,102447.73
2018-09-27T02:15:38.737Z,102451.64
2018-09-27T02:18:07.948Z,102444.66
2018-09-27T02:20:37.034Z,102445.97
2018-09-27T02:23:05.537Z,102439.83
2018-09-27T02:25:39.957Z,102439.38
2018-09-27T02:28:08.582Z,102434.55
2018-09-27T02:30:37.714Z,102430.19
2018-09-27T02:33:06.309Z,102423.16
2018-09-27T02:35:37.508Z,102428.84
2018-09-27T02:38:06.640Z,102426.64
2018-09-27T02:40:35.159Z,102424.03
2018-09-27T02:43:03.801Z,102424.01
2018-09-27T02:45:33.027Z,102426.19
2018-09-27T02:48:03.861Z,102424.02
2018-09-27T02:50:32.544Z,102425.73
2018-09-27T02:53:01.023Z,102414.36
2018-09-27T02:55:29.648Z,102415.66
2018-09-27T02:58:01.014Z,102419.14
2018-09-27T03:00:29.570Z,102410.39
2018-09-27T03:02:58.228Z,102412.13
2018-09-27T03:05:26.850Z,102410.39
2018-09-27T03:07:55.353Z,102414.30
2018-09-27T03:10:26.888Z,102417.80
2018-09-27T03:12:55.650Z,102406.41
2018-09-27T03:15:25.779Z,102406.86
2018-09-27T03:17:54.549Z,102406.83
2018-09-27T03:20:26.162Z,102403.33
2018-09-27T03:22:55.465Z,102397.62
2018-09-27T03:25:24.185Z,102398.93
2018-09-27T03:27:52.746Z,102392.80
2018-09-27T03:30:21.302Z,102391.91
2018-09-27T03:32:51.401Z,102389.27
2018-09-27T03:35:20.603Z,102388.38
2018-09-27T03:37:49.275Z,102382.69
2018-09-27T03:40:18.179Z,102381.33
2018-09-27T03:42:49.136Z,102376.09
2018-09-27T03:45:17.777Z,102380.02
2018-09-27T03:47:46.433Z,102373.04
2018-09-27T03:50:15.673Z,102361.64
2018-09-27T03:52:44.241Z,102366.02
2018-09-27T03:55:16.796Z,102367.76
2018-09-27T03:57:45.382Z,102369.02
2018-09-27T04:00:14.847Z,102369.45
2018-09-27T04:02:44.469Z,102362.89
2018-09-27T04:05:15.891Z,102367.69
2018-09-27T04:07:44.594Z,102365.50
2018-09-27T04:10:13.130Z,102356.75
2018-09-27T04:12:41.707Z,102359.36
2018-09-27T04:15:10.230Z,102360.23
2018-09-27T04:17:39.769Z,102363.23
2018-09-27T04:20:09.137Z,102358.00
2018-09-27T04:22:37.781Z,102359.70
2018-09-27T04:25:06.858Z,102359.23
2018-09-27T04:27:38.349Z,102353.11
2018-09-27T04:30:08.273Z,102358.33
2018-09-27T04:32:38.094Z,102361.39
2018-09-27T04:35:07.445Z,102362.67
2018-09-27T04:37:38.413Z,102354.80
2018-09-27T04:40:07.209Z,102364.41
2018-09-27T04:42:35.847Z,102363.50
2018-09-27T04:45:04.611Z,102368.30
2018-09-27T04:47:33.948Z,102363.48
2018-09-27T04:50:06.480Z,102359.94
2018-09-27T04:52:35.116Z,102361.67
2018-09-27T04:55:03.915Z,102354.71
2018-09-27T04:57:32.560Z,102359.92
2018-09-27T05:00:04.116Z,102355.97
2018-09-27T05:02:32.688Z,102361.60
2018-09-27T05:05:01.168Z,102364.61
2018-09-27T05:07:30.401Z,102363.28
2018-09-27T05:09:59.191Z,102361.06
2018-09-27T05:12:29.436Z,102356.22
2018-09-27T05:14:57.945Z,102354.86
2018-09-27T05:17:26.709Z,102356.59
2018-09-27T05:19:55.629Z,102362.69
2018-09-27T05:22:27.865Z,102353.53
2018-09-27T05:24:56.596Z,102357.00
2018-09-27T05:27:25.315Z,102356.48
2018-09-27T05:29:54.550Z,102353.39
2018-09-27T05:32:24.612Z,102347.73
2018-09-27T05:34:53.761Z,102341.67
2018-09-27T05:37:22.198Z,102347.36
2018-09-27T05:39:51.066Z,102334.69
2018-09-27T05:42:19.742Z,102339.87
2018-09-27T05:44:48.707Z,102338.11
2018-09-27T05:47:17.441Z,102337.70
2018-09-27T05:49:46.133Z,102341.20
2018-09-27T05:52:14.638Z,102334.19
2018-09-27T05:54:43.310Z,102332.02
2018-09-27T05:57:12.074Z,102326.79
2018-09-27T05:59:40.669Z,102330.27
2018-09-27T06:02:09.407Z,102328.09
2018-09-27T06:04:37.997Z,102332.47
2018-09-27T06:07:06.872Z,102331.60
2018-09-27T06:09:36.129Z,102321.13
2018-09-27T06:12:05.559Z,102315.03
2018-09-27T06:14:34.249Z,102318.58
2018-09-27T06:17:02.930Z,102318.14
2018-09-27T06:19:31.771Z,102325.61
2018-09-27T06:22:00.335Z,102314.27
2018-09-27T06:24:29.023Z,102319.95
2018-09-27T06:26:57.882Z,102320.42
2018-09-27T06:29:26.553Z,102326.59
2018-09-27T06:31:55.362Z,102331.41
2018-09-27T06:34:24.191Z,102332.76
2018-09-27T06:36:52.716Z,102331.95
2018-09-27T06:39:21.274Z,102326.28
2018-09-27T06:41:50.094Z,102327.19
2018-09-27T06:44:18.648Z,102329.44
2018-09-27T06:46:47.251Z,102327.28
2018-09-27T06:49:16.174Z,102318.53
2018-09-27T06:51:44.811Z,102322.06
2018-09-27T06:54:13.430Z,102316.41
2018-09-27T06:56:42.107Z,102318.18
2018-09-27T06:59:10.754Z,102319.06
2018-09-27T07:01:39.617Z,102317.38
2018-09-27T07:04:08.565Z,102313.94
2018-09-27T07:06:37.097Z,102305.69
2018-09-27T07:09:08.787Z,102312.72
2018-09-27T07:11:37.977Z,102319.33
2018-09-27T07:14:06.706Z,102313.66
2018-09-27T07:16:35.389Z,102316.75
2018-09-27T07:19:04.855Z,102317.23
2018-09-27T07:21:33.375Z,102312.41
2018-09-27T07:24:01.949Z,102312.45
2018-09-27T07:26:30.559Z,102314.69
2018-09-27T07:28:59.243Z,102311.66
2018-09-27T07:31:27.840Z,102311.26
2018-09-27T07:33:56.410Z,102310.85
2018-09-27T07:36:24.963Z,102312.63
2018-09-27T07:38:53.553Z,102310.89
2018-09-27T07:41:22.438Z,102306.12
2018-09-27T07:43:51.147Z,102313.56
2018-09-27T07:46:20.589Z,102303.97
2018-09-27T07:48:49.827Z,102306.17
2018-09-27T07:51:18.388Z,102307.05
2018-09-27T07:53:47.533Z,102299.64
2018-09-27T07:56:16.310Z,102300.10
2018-09-27T07:58:44.945Z,102295.73
2018-09-27T08:01:13.624Z,102303.66
2018-09-27T08:03:42.629Z,102303.21
2018-09-27T08:06:11.295Z,102307.19
2018-09-27T08:08:40.017Z,102303.28
2018-09-27T08:11:08.977Z,102302.41
2018-09-27T08:13:37.551Z,102306.81
2018-09-27T08:16:06.647Z,102306.39
2018-09-27T08:18:35.746Z,102299.81
2018-09-27T08:21:04.610Z,102292.83
2018-09-27T08:23:33.495Z,102292.39
2018-09-27T08:26:02.233Z,102289.77
2018-09-27T08:28:31.405Z,102288.01
2018-09-27T08:31:00.393Z,102285.81
2018-09-27T08:33:29.291Z,102285.36
2018-09-27T08:35:58.245Z,102285.36
2018-09-27T08:38:27.166Z,102282.72
2018-09-27T08:40:56.011Z,102282.73
2018-09-27T08:43:24.509Z,102276.15
2018-09-27T08:45:53.508Z,102273.50
2018-09-27T08:48:22.085Z,102269.95
2018-09-27T08:50:50.736Z,102265.98
2018-09-27T08:53:19.282Z,102265.13
2018-09-27T08:55:48.052Z,102258.95
2018-09-27T08:58:17.661Z,102250.14
2018-09-27T09:00:46.232Z,102247.47
2018-09-27T09:03:15.394Z,102250.94
2018-09-27T09:05:44.629Z,102244.70
2018-09-27T09:08:13.605Z,102236.79
2018-09-27T09:10:42.643Z,102242.43
2018-09-27T09:13:11.193Z,102233.16
2018-09-27T09:15:39.728Z,102234.88
2018-09-27T09:18:08.166Z,102229.09
2018-09-27T09:20:36.748Z,102227.24
2018-09-27T09:23:05.393Z,102229.34
2018-09-27T09:25:34.001Z,102231.05
2018-09-27T09:28:02.869Z,102225.67
2018-09-27T09:30:31.933Z,102213.30
2018-09-27T09:33:00.965Z,102221.94
2018-09-27T09:35:29.861Z,102219.59
2018-09-27T09:37:58.642Z,102216.81
2018-09-27T09:40:27.145Z,102210.50
2018-09-27T09:42:55.697Z,102211.23
2018-09-27T09:45:24.334Z,102208.86
2018-09-27T09:47:52.909Z,102206.05
2018-09-27T09:50:21.906Z,102205.02
2018-09-27T09:52:50.351Z,102203.52
2018-09-27T09:55:19.120Z,102198.03
2018-09-27T09:57:47.833Z,102193.28
2018-09-27T10:00:17.065Z,102184.59
2018-09-27T10:02:46.392Z,102185.72
2018-09-27T10:05:15.593Z,102179.37
2018-09-27T10:07:44.480Z,102169.95
2018-09-27T10:10:13.161Z,102155.53
2018-09-27T10:12:41.661Z,102155.17
2018-09-27T10:15:10.185Z,102150.88
2018-09-27T10:17:39.564Z,102144.00
2018-09-27T10:20:08.361Z,102149.02
2018-09-27T10:22:37.065Z,102146.76
2018-09-27T10:25:06.312Z,102136.98
2018-09-27T10:27:34.927Z,102127.33
2018-09-27T10:30:03.536Z,102127.48
2018-09-27T10:32:32.928Z,102125.41
2018-09-27T10:35:01.642Z,102121.47
2018-09-27T10:37:37.053Z,102117.47
2018-09-27T10:40:06.343Z,102119.44
2018-09-27T10:42:34.901Z,102116.72
2018-09-27T10:45:04.085Z,102110.36
2018-09-27T10:47:32.736Z,102107.03
2018-09-27T10:50:01.576Z,102103.88
2018-09-27T11:09:55.010Z,102067.02
2018-09-27T11:12:23.645Z,102062.74
2018-09-27T11:14:52.298Z,102063.83
2018-09-27T11:17:20.928Z,102065.56
2018-09-27T11:19:49.563Z,102064.12
2018-09-27T11:22:18.787Z,102056.04
2018-09-27T11:24:47.376Z,102042.72
2018-09-27T11:27:16.001Z,102042.59
2018-09-27T11:30:49.531Z,102046.13
2018-09-27T11:33:18.273Z,102035.27
2018-09-27T11:35:46.840Z,102023.98
2018-09-27T11:38:15.388Z,102017.13
2018-09-27T11:40:43.952Z,102014.55
2018-09-27T11:43:13.342Z,102016.41
2018-09-27T11:45:41.785Z,102006.73
2018-09-27T11:48:11.002Z,102004.59
2018-09-27T11:50:39.474Z,101992.85
2018-09-27T11:53:08.104Z,101991.86
2018-09-27T11:55:36.560Z,101984.66
2018-09-27T11:58:05.733Z,101983.72
2018-09-27T12:00:34.497Z,101978.91
2018-09-27T12:03:02.979Z,101967.19
2018-09-27T12:05:31.551Z,101959.14
2018-09-27T12:08:00.305Z,101947.86
2018-09-27T12:10:29.528Z,101942.75
2018-09-27T12:12:58.697Z,101938.24
2018-09-27T12:15:27.306Z,101933.71
2018-09-27T12:17:56.071Z,101931.23
2018-09-27T12:20:24.943Z,101920.98
2018-09-27T12:22:53.568Z,101921.67
2018-09-27T12:25:23.018Z,101916.96
2018-09-27T12:27:51.572Z,101914.01
2018-09-27T12:30:20.229Z,101914.01
2018-09-27T12:32:48.941Z,101906.07
2018-09-27T12:35:17.478Z,101903.33
2018-09-27T12:37:46.033Z,101907.48
2018-09-27T12:40:15.569Z,101893.68
2018-09-27T12:42:44.280Z,101885.36
2018-09-27T12:45:13.596Z,101882.40
2018-09-27T12:47:42.235Z,101886.05
2018-09-27T12:50:10.867Z,101878.47
2018-09-27T12:52:39.346Z,101857.26
2018-09-27T12:55:08.643Z,101860.74
2018-09-27T12:57:37.068Z,101858.02
2018-09-27T13:00:06.036Z,101850.83
2018-09-27T13:02:36.715Z,101848.86
2018-09-27T13:05:05.110Z,101846.05
2018-09-27T13:07:33.774Z,101842.78
2018-09-27T13:10:02.407Z,101830.03
2018-09-27T13:12:30.766Z,101829.52
2018-09-27T13:14:59.956Z,101829.70
2018-09-27T13:17:28.534Z,101820.25
2018-09-27T13:19:57.145Z,101819.03
2018-09-27T13:22:25.696Z,101810.56
2018-09-27T13:24:54.235Z,101804.64
2018-09-27T13:27:23.028Z,101797.71
2018-09-27T13:29:51.699Z,101795.73
2018-09-27T13:32:20.371Z,101793.28
2018-09-27T13:34:49.914Z,101792.99
2018-09-27T13:37:19.078Z,101784.94
2018-09-27T13:39:47.911Z,101785.36
2018-09-27T13:42:16.450Z,101781.20
2018-09-27T13:44:45.113Z,101779.03
2018-09-27T13:47:13.559Z,101770.06
2018-09-27T13:49:42.203Z,101768.36
2018-09-27T13:52:10.754Z,101763.44
2018-09-27T13:54:39.410Z,101757.95
2018-09-27T13:57:08.253Z,101752.85
2018-09-27T13:59:36.820Z,101758.62
2018-09-27T14:02:05.484Z,101756.66
2018-09-27T14:04:34.251Z,101750.22
2018-09-27T14:07:02.872Z,101751.98
2018-09-27T14:09:32.055Z,101740.62
2018-09-27T14:12:00.672Z,101744.73
2018-09-27T14:14:29.411Z,101744.38
2018-09-27T14:16:57.944Z,101738.97
2018-09-27T14:19:26.518Z,101729.70
2018-09-27T14:21:55.628Z,101741.83
2018-09-27T14:24:24.580Z,101728.84
2018-09-27T14:26:53.259Z,101726.43
2018-09-27T14:29:21.765Z,101723.74
2018-09-27T14:31:50.444Z,101719.09
2018-09-27T14:34:19.611Z,101705.03
2018-09-27T14:36:48.536Z,101706.22
2018-09-27T14:39:16.986Z,101695.05
2018-09-27T14:41:45.679Z,101696.33
2018-09-27T14:44:14.827Z,101694.53
2018-09-27T14:46:43.845Z,101687.92
2018-09-27T14:49:12.573Z,101687.70
2018-09-27T14:51:41.312Z,101679.77
2018-09-27T14:54:09.805Z,101679.78
2018-09-27T14:56:39.004Z,101684.42
2018-09-27T14:59:11.231Z,101679.44
2018-09-27T15:01:39.952Z,101676.38
2018-09-27T15:04:08.675Z,101677.94
2018-09-27T15:06:37.127Z,101670.84
2018-09-27T15:09:08.099Z,101666.38
2018-09-27T15:11:37.027Z,101667.20
2018-09-27T15:14:05.627Z,101665.56
2018-09-27T15:16:34.652Z,101661.42
2018-09-27T15:19:03.181Z,101656.04
2018-09-27T15:21:31.701Z,101655.95
2018-09-27T15:24:00.927Z,101656.05
2018-09-27T15:26:30.636Z,101652.28
2018-09-27T15:28:59.882Z,101655.75
2018-09-27T15:31:29.316Z,101656.28
2018-09-27T15:33:58.377Z,101651.23
2018-09-27T15:36:26.904Z,101651.11
2018-09-27T15:38:55.677Z,101651.42
2018-09-27T15:41:24.354Z,101651.92
2018-09-27T15:43:52.985Z,101643.49
2018-09-27T15:46:21.720Z,101633.34
2018-09-27T15:48:50.345Z,101642.82
2018-09-27T15:51:19.265Z,101638.75
2018-09-27T15:53:47.788Z,101639.23
2018-09-27T15:56:16.346Z,101631.98
2018-09-27T15:58:45.316Z,101640.40
2018-09-27T16:01:13.742Z,101635.23
2018-09-27T16:03:42.385Z,101634.33
2018-09-27T16:06:15.859Z,101626.26
2018-09-27T16:08:44.578Z,101627.50
2018-09-27T16:11:13.229Z,101632.87
2018-09-27T16:13:41.987Z,101629.38
2018-09-27T16:16:10.794Z,101627.14
2018-09-27T16:18:39.301Z,101624.10
2018-09-27T16:21:07.919Z,101612.89
2018-09-27T16:23:36.598Z,101614.48
2018-09-27T16:26:05.765Z,101614.98
2018-09-27T16:28:34.494Z,101621.15
2018-09-27T16:31:03.121Z,101614.97
2018-09-27T16:33:32.002Z,101615.74
2018-09-27T16:36:00.693Z,101612.78
2018-09-27T16:38:36.079Z,101609.50
2018-09-27T16:41:04.561Z,101619.26
2018-09-27T16:43:33.499Z,101613.06
2018-09-27T16:46:02.106Z,101611.64
2018-09-27T16:48:30.848Z,101602.14
2018-09-27T16:50:59.814Z,101605.60
2018-09-27T16:53:28.538Z,101598.94
2018-09-27T16:55:57.235Z,101602.01
2018-09-27T16:58:25.731Z,101594.92
2018-09-27T17:00:54.470Z,101599.77
2018-09-27T17:03:23.168Z,101593.16
2018-09-27T17:05:52.573Z,101594.95
2018-09-27T17:08:21.031Z,101593.61
2018-09-27T17:10:49.741Z,101596.33
2018-09-27T17:13:19.042Z,101590.59
2018-09-27T17:15:47.649Z,101581.70
2018-09-27T17:18:16.919Z,101590.09
2018-09-27T17:20:45.895Z,101584.45
2018-09-27T17:23:14.472Z,101577.88
2018-09-27T17:25:43.010Z,101589.05
2018-09-27T17:28:11.686Z,101581.63
2018-09-27T17:30:41.293Z,101579.83
2018-09-27T17:33:10.647Z,101583.39
2018-09-27T17:35:39.388Z,101582.09
2018-09-27T17:38:08.768Z,101583.47
2018-09-27T17:40:37.492Z,101586.58
2018-09-27T17:43:06.029Z,101590.46
2018-09-27T17:45:34.897Z,101581.59
2018-09-27T17:48:03.987Z,101581.59
2018-09-27T17:50:32.751Z,101578.91
2018-09-27T17:53:01.319Z,101574.81
2018-09-27T17:55:31.153Z,101581.83
2018-09-27T17:58:00.525Z,101580.92
2018-09-27T18:00:29.048Z,101583.42
2018-09-27T18:02:57.810Z,101582.41
2018-09-27T18:05:26.447Z,101575.29
2018-09-27T18:07:55.017Z,101581.77
2018-09-27T18:10:23.993Z,101577.69
2018-09-27T18:12:52.885Z,101579.64
2018-09-27T18:15:22.040Z,101578.63
2018-09-27T18:17:50.887Z,101577.59
2018-09-27T18:20:19.623Z,101572.06
2018-09-27T18:22:51.001Z,101571.03
2018-09-27T18:25:21.075Z,101575.64
2018-09-27T18:27:49.842Z,101578.11
2018-09-27T18:30:18.554Z,101577.08
2018-09-27T18:32:48.391Z,101574.63
2018-09-27T18:35:16.927Z,101577.58
2018-09-27T18:37:46.454Z,101579.15
2018-09-27T18:40:15.342Z,101572.32
2018-09-27T18:42:44.125Z,101569.07
2018-09-27T18:45:12.700Z,101579.44
2018-09-27T18:47:41.622Z,101572.16
2018-09-27T18:50:10.693Z,101572.80
2018-09-27T18:52:39.294Z,101580.03
2018-09-27T18:55:08.920Z,101579.34
2018-09-27T18:57:43.077Z,101579.06
2018-09-27T19:00:11.734Z,101583.67
2018-09-27T19:02:40.738Z,101575.48
2018-09-27T19:05:10.341Z,101573.94
2018-09-27T19:07:39.281Z,101576.34
2018-09-27T19:10:08.383Z,101572.52
2018-09-27T19:12:37.258Z,101583.27
2018-09-27T19:15:12.261Z,101581.28
2018-09-27T19:17:41.138Z,101579.70
2018-09-27T19:20:10.195Z,101580.32
2018-09-27T19:22:38.889Z,101581.83
2018-09-27T19:25:08.698Z,101587.71
2018-09-27T19:27:37.488Z,101578.59
2018-09-27T19:30:07.016Z,101582.30
2018-09-27T19:32:35.946Z,101581.15
2018-09-27T19:35:05.674Z,101577.42
2018-09-27T19:37:34.292Z,101582.83
2018-09-27T19:40:03.186Z,101577.64
2018-09-27T19:42:31.949Z,101582.63
2018-09-27T19:45:01.307Z,101591.19
2018-09-27T19:47:29.868Z,101589.11
2018-09-27T19:49:58.836Z,101590.09
2018-09-27T19:52:27.701Z,101596.81
2018-09-27T19:54:56.728Z,101596.91
2018-09-27T19:57:25.578Z,101594.44
2018-09-27T19:59:54.412Z,101595.89
2018-09-27T20:02:23.167Z,101596.90
2018-09-27T20:04:52.874Z,101594.38
2018-09-27T20:07:22.201Z,101590.11
2018-09-27T20:09:50.818Z,101587.97
2018-09-27T20:12:19.823Z,101591.08
2018-09-27T20:14:48.709Z,101586.80
2018-09-27T20:17:17.720Z,101579.37
2018-09-27T20:19:46.763Z,101591.31
2018-09-27T20:22:15.711Z,101594.05
2018-09-27T20:24:44.189Z,101593.33
2018-09-27T20:27:12.759Z,101600.91
2018-09-27T20:29:41.728Z,101606.48
2018-09-27T20:32:10.913Z,101615.00
2018-09-27T20:34:39.546Z,101613.36
2018-09-27T20:37:08.349Z,101611.19
2018-09-27T20:39:36.966Z,101608.16
2018-09-27T20:42:06.109Z,101608.63
2018-09-27T20:44:35.704Z,101607.75
2018-09-27T20:47:04.906Z,101603.41
2018-09-27T20:49:33.672Z,101607.55
2018-09-27T20:52:02.356Z,101607.64
2018-09-27T20:54:31.067Z,101608.55
2018-09-27T20:56:59.703Z,101603.73
2018-09-27T20:59:28.192Z,101604.22
2018-09-27T21:01:56.812Z,101610.89
2018-09-27T21:04:25.288Z,101602.99
2018-09-27T21:06:53.753Z,101605.66
2018-09-27T21:09:22.268Z,101613.35
2018-09-27T21:11:50.854Z,101604.66
2018-09-27T21:14:19.694Z,101606.95
2018-09-27T21:16:49.047Z,101608.32
2018-09-27T21:19:18.642Z,101604.86
2018-09-27T21:21:47.154Z,101600.56
2018-09-27T21:24:16.278Z,101605.46
2018-09-27T21:26:45.392Z,101603.41
2018-09-27T21:29:15.185Z,101604.83
2018-09-27T21:31:43.746Z,101596.55
2018-09-27T21:34:12.692Z,101595.31
2018-09-27T21:36:41.689Z,101601.58
2018-09-27T21:39:10.277Z,101589.83
2018-09-27T21:41:39.651Z,101592.97
2018-09-27T21:44:08.892Z,101597.91
2018-09-27T21:46:37.564Z,101602.39
2018-09-27T21:49:06.331Z,101596.78
2018-09-27T21:51:34.779Z,101599.94
2018-09-27T21:54:03.547Z,101600.92
2018-09-27T21:56:32.124Z,101590.44
2018-09-27T21:59:00.777Z,101597.13
2018-09-27T22:01:29.544Z,101594.10
2018-09-27T22:03:58.232Z,101598.58
2018-09-27T22:06:27.433Z,101598.67
2018-09-27T22:08:56.032Z,101599.67
2018-09-27T22:11:25.442Z,101598.02
2018-09-27T22:13:53.977Z,101599.00
2018-09-27T22:16:22.650Z,101588.95
2018-09-27T22:18:51.446Z,101589.94
2018-09-27T22:21:20.106Z,101586.98
2018-09-27T22:23:48.795Z,101589.73
2018-09-27T22:26:17.288Z,101588.92
2018-09-27T22:28:45.957Z,101577.14
2018-09-27T22:31:14.409Z,101579.44
2018-09-27T22:33:42.990Z,101566.40
2018-09-27T22:36:11.607Z,101575.23
2018-09-27T22:38:40.217Z,101581.42
2018-09-27T22:41:08.836Z,101580.13
2018-09-27T22:43:38.113Z,101587.69
2018-09-27T22:46:06.764Z,101581.65
2018-09-27T22:48:35.290Z,101582.57
2018-09-27T22:51:04.703Z,101584.88
2018-09-27T22:53:33.379Z,101577.94
2018-09-27T22:56:02.093Z,101586.34
2018-09-27T22:58:31.068Z,101582.45
2018-09-27T23:00:59.833Z,101580.30
2018-09-27T23:03:28.626Z,101582.09
2018-09-27T23:05:57.390Z,101578.64
2018-09-27T23:08:26.123Z,101579.57
2018-09-27T23:10:55.064Z,101575.69
2018-09-27T23:13:23.863Z,101577.06
2018-09-27T23:15:52.473Z,101573.19
2018-09-27T23:18:21.389Z,101571.89
2018-09-27T23:20:50.325Z,101574.64
2018-09-27T23:23:19.165Z,101567.19
2018-09-27T23:25:47.938Z,101572.52
2018-09-27T23:28:16.528Z,101570.37
2018-09-27T23:30:45.383Z,101566.48
2018-09-27T23:33:14.441Z,101565.59
2018-09-27T23:35:44.034Z,101565.66
2018-09-27T23:38:13.563Z,101559.98
2018-09-27T23:40:42.009Z,101564.84
2018-09-27T23:43:10.729Z,101557.02
2018-09-27T23:45:39.358Z,101561.44
2018-09-27T23:48:07.973Z,101570.67
2018-09-27T23:50:36.527Z,101568.09
2018-09-27T23:53:05.034Z,101569.00
2018-09-27T23:55:33.523Z,101560.69
